createdAt,value
2023-01-20T00:02:34.723Z,97680.59
2023-01-20T00:05:07.372Z,97678.59
2023-01-20T00:07:40.073Z,97683.44
2023-01-20T00:10:12.409Z,97692.91
2023-01-20T00:12:45.138Z,97687.78
2023-01-20T00:15:17.017Z,97694.09
2023-01-20T00:17:49.718Z,97696.03
2023-01-20T00:20:21.657Z,97697.97
2023-01-20T00:22:54.367Z,97701.94
2023-01-20T00:25:26.340Z,97702.09
2023-01-20T00:28:01.775Z,97707.47
2023-01-20T00:30:34.178Z,97701.53
2023-01-20T00:33:09.748Z,97703.28
2023-01-20T00:35:42.918Z,97710.66
2023-01-20T00:38:16.029Z,97710.00
2023-01-20T00:40:55.076Z,97718.78
2023-01-20T00:43:27.914Z,97722.66
2023-01-20T00:46:00.297Z,97716.50
2023-01-20T00:48:33.675Z,97724.63
2023-01-20T00:51:07.412Z,97726.78
2023-01-20T00:53:40.245Z,97728.44
2023-01-20T00:56:12.931Z,97725.22
2023-01-20T00:58:45.244Z,97731.91
2023-01-20T01:01:18.694Z,97737.50
2023-01-20T01:03:54.426Z,97734.81
2023-01-20T01:06:27.256Z,97737.50
2023-01-20T01:08:59.161Z,97748.19
2023-01-20T01:11:31.948Z,97751.25
2023-01-20T01:14:03.855Z,97758.38
2023-01-20T01:16:37.071Z,97754.78
2023-01-20T01:19:09.212Z,97756.72
2023-01-20T01:21:41.901Z,97761.38
2023-01-20T01:24:13.798Z,97766.34
2023-01-20T01:26:47.065Z,97769.03
2023-01-20T01:29:18.950Z,97776.38
2023-01-20T01:31:51.752Z,97782.81
2023-01-20T01:34:23.753Z,97782.66
2023-01-20T01:36:56.981Z,97784.31
2023-01-20T01:39:28.895Z,97794.28
2023-01-20T01:42:01.623Z,97784.34
2023-01-20T01:44:38.751Z,97794.16
2023-01-20T01:47:11.528Z,97799.19
2023-01-20T01:49:43.510Z,97795.72
2023-01-20T01:52:16.642Z,97798.72
2023-01-20T01:54:49.205Z,97800.59
2023-01-20T01:57:22.918Z,97804.13
2023-01-20T01:59:55.232Z,97802.88
2023-01-20T02:02:27.208Z,97798.38
2023-01-20T02:04:59.986Z,97800.00
2023-01-20T02:07:33.507Z,97802.50
2023-01-20T02:10:06.785Z,97801.63
2023-01-20T02:12:39.923Z,97793.47
2023-01-20T02:15:13.821Z,97796.38
2023-01-20T02:18:24.719Z,97806.81
2023-01-20T02:21:39.575Z,97804.84
2023-01-20T02:24:50.725Z,97810.44
2023-01-20T02:27:46.968Z,97811.44
2023-01-20T02:30:41.905Z,97810.38
2023-01-20T02:33:32.579Z,97815.06
2023-01-20T02:36:12.811Z,97819.63
2023-01-20T02:39:03.374Z,97818.91
2023-01-20T02:41:53.222Z,97816.88
2023-01-20T02:44:39.183Z,97815.78
2023-01-20T02:47:36.069Z,97815.44
2023-01-20T02:50:33.354Z,97818.03
2023-01-20T02:53:07.767Z,97826.59
2023-01-20T02:55:47.380Z,97830.53
2023-01-20T02:59:07.669Z,97838.09
2023-01-20T03:02:05.215Z,97839.28
2023-01-20T03:04:46.516Z,97838.16
2023-01-20T03:07:22.618Z,97844.97
2023-01-20T03:09:58.827Z,97846.25
2023-01-20T03:12:47.318Z,97847.28
2023-01-20T03:15:25.543Z,97855.59
2023-01-20T03:17:58.687Z,97854.03
2023-01-20T03:20:31.099Z,97854.75
2023-01-20T03:23:04.663Z,97861.50
2023-01-20T03:25:37.974Z,97866.41
2023-01-20T03:28:10.667Z,97865.91
2023-01-20T03:30:42.653Z,97869.38
2023-01-20T03:33:16.669Z,97870.53
2023-01-20T03:35:49.588Z,97866.75
2023-01-20T03:38:22.291Z,97869.72
2023-01-20T03:41:04.559Z,97870.50
2023-01-20T03:44:07.000Z,97880.97
2023-01-20T03:46:51.091Z,97876.00
2023-01-20T03:49:46.684Z,97879.72
2023-01-20T03:52:47.508Z,97884.91
2023-01-20T03:55:23.521Z,97891.66
2023-01-20T03:58:06.217Z,97888.53
2023-01-20T04:00:44.157Z,97890.19
2023-01-20T04:03:23.434Z,97889.06
2023-01-20T04:05:58.328Z,97895.75
2023-01-20T04:08:45.449Z,97894.28
2023-01-20T04:11:17.908Z,97897.97
2023-01-20T04:13:50.842Z,97898.63
2023-01-20T04:16:25.730Z,97903.31
2023-01-20T04:18:57.665Z,97908.59
2023-01-20T04:21:34.901Z,97919.06
2023-01-20T04:24:25.593Z,97916.63
2023-01-20T04:26:57.476Z,97921.25
2023-01-20T04:29:30.183Z,97925.84
2023-01-20T04:32:03.319Z,97934.38
2023-01-20T04:34:36.055Z,97940.59
2023-01-20T04:37:07.921Z,97943.06
2023-01-20T04:39:40.242Z,97935.41
2023-01-20T04:42:12.733Z,97949.72
2023-01-20T04:44:45.154Z,97946.47
2023-01-20T04:47:17.884Z,97956.41
2023-01-20T04:49:50.097Z,97952.13
2023-01-20T04:52:22.773Z,97961.94
2023-01-20T04:54:54.640Z,97955.91
2023-01-20T04:57:29.358Z,97960.59
2023-01-20T05:00:01.370Z,97967.13
2023-01-20T05:02:35.818Z,97969.09
2023-01-20T05:05:08.740Z,97980.81
2023-01-20T05:07:40.580Z,97985.00
2023-01-20T05:10:13.433Z,97986.00
2023-01-20T05:12:46.170Z,97989.09
2023-01-20T05:15:18.438Z,97997.91
2023-01-20T05:17:51.173Z,98001.81
2023-01-20T05:20:23.143Z,98004.66
2023-01-20T05:22:56.118Z,98008.66
2023-01-20T05:25:27.978Z,98009.50
2023-01-20T05:28:01.099Z,98016.00
2023-01-20T05:30:33.152Z,98017.09
2023-01-20T05:33:05.853Z,98025.94
2023-01-20T05:35:39.215Z,98030.44
2023-01-20T05:38:11.055Z,98030.59
2023-01-20T05:40:44.260Z,98038.63
2023-01-20T05:43:16.141Z,98040.31
2023-01-20T05:45:48.866Z,98043.41
2023-01-20T05:48:22.234Z,98049.94
2023-01-20T05:50:54.102Z,98050.25
2023-01-20T05:53:26.872Z,98060.03
2023-01-20T05:56:04.091Z,98067.03
2023-01-20T05:58:36.877Z,98069.84
2023-01-20T06:01:12.754Z,98078.00
2023-01-20T06:03:45.069Z,98077.06
2023-01-20T06:06:18.358Z,98082.56
2023-01-20T06:08:53.256Z,98083.81
2023-01-20T06:11:26.045Z,98091.97
2023-01-20T06:13:58.468Z,98081.50
2023-01-20T06:16:30.325Z,98088.22
2023-01-20T06:19:03.059Z,98096.09
2023-01-20T06:21:34.900Z,98094.94
2023-01-20T06:24:08.269Z,98097.25
2023-01-20T06:26:40.758Z,98101.81
2023-01-20T06:29:13.484Z,98107.41
2023-01-20T06:31:46.054Z,98112.97
2023-01-20T06:34:17.923Z,98113.81
2023-01-20T06:36:50.658Z,98114.69
2023-01-20T06:39:22.735Z,98118.03
2023-01-20T06:41:59.378Z,98124.25
2023-01-20T06:44:31.725Z,98128.41
2023-01-20T06:47:04.689Z,98126.75
2023-01-20T06:49:37.398Z,98131.56
2023-01-20T06:52:10.260Z,98128.78
2023-01-20T06:54:42.132Z,98138.38
2023-01-20T06:57:14.867Z,98137.72
2023-01-20T06:59:46.811Z,98148.44
2023-01-20T07:02:19.678Z,98146.22
2023-01-20T07:04:54.798Z,98155.81
2023-01-20T07:07:27.407Z,98161.16
2023-01-20T07:09:59.705Z,98159.44
2023-01-20T07:12:31.526Z,98157.34
2023-01-20T07:15:04.755Z,98167.13
2023-01-20T07:17:36.626Z,98169.28
2023-01-20T07:20:10.546Z,98173.63
2023-01-20T07:22:42.781Z,98183.56
2023-01-20T07:25:16.114Z,98185.19
2023-01-20T07:27:48.660Z,98192.88
2023-01-20T07:30:21.362Z,98192.03
2023-01-20T07:32:53.891Z,98198.16
2023-01-20T07:35:26.658Z,98194.75
2023-01-20T07:37:58.919Z,98197.03
2023-01-20T07:40:31.861Z,98204.41
2023-01-20T07:43:04.334Z,98205.66
2023-01-20T07:45:37.128Z,98211.34
2023-01-20T07:48:09.943Z,98216.91
2023-01-20T07:50:42.708Z,98219.84
2023-01-20T07:53:14.550Z,98219.84
2023-01-20T07:55:47.296Z,98227.63
2023-01-20T07:58:19.158Z,98229.56
2023-01-20T08:00:51.954Z,98230.69
2023-01-20T08:03:27.422Z,98233.97
2023-01-20T08:06:03.668Z,98234.34
2023-01-20T08:08:36.735Z,98239.06
2023-01-20T08:11:11.343Z,98238.06
2023-01-20T08:13:47.668Z,98242.91
2023-01-20T08:16:20.539Z,98249.97
2023-01-20T08:18:55.224Z,98251.72
2023-01-20T08:21:31.055Z,98252.84
2023-01-20T08:24:07.069Z,98261.88
2023-01-20T08:26:39.493Z,98272.91
2023-01-20T08:29:12.189Z,98265.22
2023-01-20T08:31:44.187Z,98267.25
2023-01-20T08:34:19.090Z,98269.72
2023-01-20T08:36:54.029Z,98276.16
2023-01-20T08:39:26.431Z,98279.91
2023-01-20T08:41:58.275Z,98279.13
2023-01-20T08:44:31.429Z,98284.00
2023-01-20T08:47:03.602Z,98284.97
2023-01-20T08:49:36.365Z,98293.91
2023-01-20T08:52:09.067Z,98293.53
2023-01-20T08:57:36.448Z,98291.97
2023-01-20T09:00:13.411Z,98295.69
2023-01-20T09:02:45.784Z,98301.59
2023-01-20T09:05:18.284Z,98311.00
2023-01-20T09:07:50.149Z,98312.84
2023-01-20T09:10:22.870Z,98314.25
2023-01-20T09:12:55.325Z,98323.84
2023-01-20T09:15:28.454Z,98333.38
2023-01-20T09:18:00.367Z,98325.31
2023-01-20T09:20:33.062Z,98331.47
2023-01-20T09:23:05.784Z,98334.22
2023-01-20T09:25:37.813Z,98338.84
2023-01-20T09:28:10.550Z,98346.81
2023-01-20T09:30:43.374Z,98350.66
2023-01-20T09:33:16.204Z,98346.91
2023-01-20T09:35:55.449Z,98341.59
2023-01-20T09:38:49.162Z,98350.22
2023-01-20T09:42:09.128Z,98354.06
2023-01-20T09:44:56.571Z,98348.56
2023-01-20T09:47:37.392Z,98347.09
2023-01-20T09:50:57.120Z,98351.66
2023-01-20T09:54:01.658Z,98348.31
2023-01-20T09:56:41.659Z,98354.56
2023-01-20T09:59:27.924Z,98359.69
2023-01-20T10:02:05.728Z,98362.94
2023-01-20T10:08:05.454Z,98358.47
2023-01-20T10:10:48.092Z,98366.75
2023-01-20T10:14:02.157Z,98366.25
2023-01-20T10:16:53.669Z,98370.84
2023-01-20T10:19:37.523Z,98367.84
2023-01-20T10:22:33.753Z,98372.69
2023-01-20T10:25:28.794Z,98367.13
2023-01-20T10:28:27.417Z,98363.50
2023-01-20T10:31:04.845Z,98363.50
2023-01-20T10:33:45.333Z,98365.53
2023-01-20T10:36:28.144Z,98361.38
2023-01-20T10:39:11.961Z,98360.06
2023-01-20T10:41:51.264Z,98358.09
2023-01-20T10:44:23.737Z,98356.97
2023-01-20T10:47:26.190Z,98363.69
2023-01-20T10:50:35.303Z,98367.44
2023-01-20T10:53:36.215Z,98360.22
2023-01-20T10:56:28.964Z,98366.53
2023-01-20T10:59:17.126Z,98359.66
2023-01-20T11:02:02.421Z,98372.94
2023-01-20T11:04:43.492Z,98375.97
2023-01-20T11:07:19.562Z,98377.09
2023-01-20T11:09:51.898Z,98373.56
2023-01-20T11:12:29.171Z,98374.97
2023-01-20T11:15:01.435Z,98371.63
2023-01-20T11:17:34.401Z,98365.66
2023-01-20T11:20:07.001Z,98368.28
2023-01-20T11:22:39.634Z,98373.88
2023-01-20T11:25:26.436Z,98380.34
2023-01-20T11:27:59.141Z,98382.44
2023-01-20T11:30:34.453Z,98387.41
2023-01-20T11:33:28.432Z,98386.94
2023-01-20T11:36:19.195Z,98386.06
2023-01-20T11:38:52.487Z,98385.50
2023-01-20T11:41:31.572Z,98381.06
2023-01-20T11:44:06.862Z,98363.97
2023-01-20T11:46:39.822Z,98373.97
2023-01-20T11:49:22.784Z,98375.31
2023-01-20T11:51:57.811Z,98380.91
2023-01-20T11:54:30.691Z,98374.97
2023-01-20T11:57:08.240Z,98368.44
2023-01-20T11:59:49.402Z,98366.91
2023-01-20T12:02:25.561Z,98374.50
2023-01-20T12:05:10.317Z,98382.88
2023-01-20T12:07:48.239Z,98377.72
2023-01-20T12:10:29.594Z,98374.81
2023-01-20T12:13:20.121Z,98381.16
2023-01-20T12:15:56.659Z,98376.81
2023-01-20T12:18:38.856Z,98382.25
2023-01-20T12:21:18.459Z,98376.28
2023-01-20T12:24:09.770Z,98386.69
2023-01-20T12:26:42.564Z,98394.28
2023-01-20T12:29:27.615Z,98394.78
2023-01-20T12:32:01.415Z,98401.91
2023-01-20T12:34:34.395Z,98394.25
2023-01-20T12:37:29.759Z,98394.25
2023-01-20T12:40:22.360Z,98396.22
2023-01-20T12:43:28.800Z,98400.44
2023-01-20T12:46:32.720Z,98399.16
2023-01-20T12:49:23.443Z,98401.25
2023-01-20T12:52:18.276Z,98393.72
2023-01-20T12:55:03.289Z,98396.94
2023-01-20T12:57:52.431Z,98408.13
2023-01-20T13:00:39.750Z,98406.50
2023-01-20T13:03:41.915Z,98403.84
2023-01-20T13:07:16.974Z,98400.25
2023-01-20T13:10:06.922Z,98395.34
2023-01-20T13:13:12.657Z,98391.84
2023-01-20T13:16:17.376Z,98402.22
2023-01-20T13:19:08.814Z,98393.19
2023-01-20T13:21:42.500Z,98394.06
2023-01-20T13:24:24.634Z,98395.66
2023-01-20T13:27:01.392Z,98399.09
2023-01-20T13:29:36.918Z,98390.63
2023-01-20T13:32:37.462Z,98401.56
2023-01-20T13:35:18.416Z,98401.91
2023-01-20T13:37:57.007Z,98398.97
2023-01-20T13:40:37.965Z,98407.50
2023-01-20T13:43:42.744Z,98403.44
2023-01-20T13:46:15.804Z,98407.81
2023-01-20T13:49:14.183Z,98404.50
2023-01-20T13:51:48.000Z,98408.38
2023-01-20T13:54:23.964Z,98413.13
2023-01-20T13:57:23.176Z,98414.03
2023-01-20T13:59:56.705Z,98418.63
2023-01-20T14:02:36.170Z,98419.97
2023-01-20T14:05:24.587Z,98417.66
2023-01-20T14:07:58.085Z,98419.94
2023-01-20T14:10:30.047Z,98413.56
2023-01-20T14:13:08.728Z,98423.16
2023-01-20T14:15:40.896Z,98420.31
2023-01-20T14:18:18.008Z,98423.31
2023-01-20T14:21:23.402Z,98424.69
2023-01-20T14:23:56.556Z,98424.19
2023-01-20T14:26:30.888Z,98420.19
2023-01-20T14:29:03.779Z,98417.13
2023-01-20T14:31:44.060Z,98422.00
2023-01-20T14:34:33.042Z,98424.28
2023-01-20T14:37:25.857Z,98435.25
2023-01-20T14:40:01.856Z,98428.34
2023-01-20T14:42:36.477Z,98429.44
2023-01-20T14:45:19.991Z,98438.97
2023-01-20T14:47:54.273Z,98435.00
2023-01-20T14:50:26.965Z,98439.88
2023-01-20T14:52:59.282Z,98440.63
2023-01-20T14:55:43.519Z,98444.84
2023-01-20T14:58:17.392Z,98440.50
2023-01-20T15:00:50.350Z,98445.00
2023-01-20T15:03:28.759Z,98440.13
2023-01-20T15:06:18.153Z,98445.69
2023-01-20T15:09:05.596Z,98441.97
2023-01-20T15:11:39.233Z,98447.63
2023-01-20T15:14:13.016Z,98447.09
2023-01-20T15:16:49.388Z,98446.63
2023-01-20T15:19:33.441Z,98441.31
2023-01-20T15:22:20.253Z,98442.81
2023-01-20T15:24:53.788Z,98439.59
2023-01-20T15:27:34.446Z,98446.22
2023-01-20T15:30:27.213Z,98436.25
2023-01-20T15:33:00.810Z,98442.34
2023-01-20T15:35:33.443Z,98452.38
2023-01-20T15:38:12.577Z,98448.25
2023-01-20T15:40:44.469Z,98458.50
2023-01-20T15:43:19.136Z,98461.31
2023-01-20T15:45:51.068Z,98455.13
2023-01-20T15:48:24.957Z,98468.69
2023-01-20T15:50:57.285Z,98466.50
2023-01-20T15:53:29.920Z,98469.34
2023-01-20T15:56:02.307Z,98471.72
2023-01-20T15:58:37.622Z,98472.31
2023-01-20T16:01:13.774Z,98478.03
2023-01-20T16:03:46.739Z,98476.88
2023-01-20T16:06:20.289Z,98480.28
2023-01-20T16:08:52.840Z,98476.94
2023-01-20T16:11:25.118Z,98481.44
2023-01-20T16:13:59.187Z,98486.16
2023-01-20T16:16:35.950Z,98485.31
2023-01-20T16:19:10.310Z,98484.75
2023-01-20T16:21:45.212Z,98483.88
2023-01-20T16:24:18.087Z,98490.19
2023-01-20T16:26:49.949Z,98485.22
2023-01-20T16:29:23.028Z,98495.31
2023-01-20T16:31:54.917Z,98503.28
2023-01-20T16:34:27.607Z,98492.78
2023-01-20T16:36:59.506Z,98496.72
2023-01-20T16:39:33.194Z,98506.22
2023-01-20T16:42:05.533Z,98504.03
2023-01-20T16:44:39.150Z,98505.56
2023-01-20T16:47:11.016Z,98505.56
2023-01-20T16:49:43.718Z,98505.56
2023-01-20T16:52:15.588Z,98498.16
2023-01-20T16:54:48.140Z,98510.56
2023-01-20T16:57:19.980Z,98509.31
2023-01-20T16:59:52.513Z,98515.78
2023-01-20T17:02:24.463Z,98519.28
2023-01-20T17:04:57.485Z,98521.88
2023-01-20T17:07:29.399Z,98519.28
2023-01-20T17:10:02.244Z,98520.91
2023-01-20T17:12:34.242Z,98525.31
2023-01-20T17:15:07.635Z,98533.56
2023-01-20T17:17:39.997Z,98531.09
2023-01-20T17:20:12.053Z,98528.97
2023-01-20T17:22:45.217Z,98532.06
2023-01-20T17:25:17.879Z,98530.91
2023-01-20T17:27:50.295Z,98531.94
2023-01-20T17:30:23.973Z,98534.09
2023-01-20T17:32:58.607Z,98536.59
2023-01-20T17:35:30.451Z,98538.91
2023-01-20T17:38:02.967Z,98542.75
2023-01-20T17:40:34.851Z,98543.34
2023-01-20T17:43:07.401Z,98539.56
2023-01-20T17:45:39.351Z,98553.69
2023-01-20T17:48:12.336Z,98553.31
2023-01-20T17:50:44.305Z,98551.75
2023-01-20T17:53:16.897Z,98546.84
2023-01-20T17:55:51.883Z,98557.50
2023-01-20T17:58:25.926Z,98561.44
2023-01-20T18:00:58.206Z,98559.78
2023-01-20T18:03:30.564Z,98553.09
2023-01-20T18:06:02.483Z,98559.34
2023-01-20T18:08:35.553Z,98557.94
2023-01-20T18:11:11.549Z,98559.84
2023-01-20T18:13:46.928Z,98564.81
2023-01-20T18:16:21.055Z,98561.25
2023-01-20T18:18:58.733Z,98571.88
2023-01-20T18:21:41.689Z,98574.94
2023-01-20T18:24:15.040Z,98565.59
2023-01-20T18:26:47.266Z,98564.25
2023-01-20T18:29:19.195Z,98568.13
2023-01-20T18:31:51.877Z,98575.38
2023-01-20T18:34:24.174Z,98574.81
2023-01-20T18:36:56.798Z,98575.63
2023-01-20T18:39:29.493Z,98570.25
2023-01-20T18:42:01.844Z,98571.59
2023-01-20T18:44:33.689Z,98569.47
2023-01-20T18:47:06.169Z,98578.94
2023-01-20T18:49:38.252Z,98573.44
2023-01-20T18:52:11.978Z,98582.25
2023-01-20T18:54:43.854Z,98581.56
2023-01-20T18:57:16.601Z,98578.84
2023-01-20T18:59:48.918Z,98583.91
2023-01-20T19:02:21.676Z,98574.06
2023-01-20T19:04:54.047Z,98586.78
2023-01-20T19:07:26.780Z,98580.59
2023-01-20T19:09:59.133Z,98578.09
2023-01-20T19:12:31.424Z,98585.31
2023-01-20T19:15:04.429Z,98578.78
2023-01-20T19:17:36.546Z,98575.97
2023-01-20T19:20:11.279Z,98579.94
2023-01-20T19:22:43.243Z,98579.47
2023-01-20T19:25:16.347Z,98580.94
2023-01-20T19:27:48.281Z,98601.53
2023-01-20T19:30:21.339Z,98589.06
2023-01-20T19:32:53.235Z,98579.16
2023-01-20T19:35:25.952Z,98584.78
2023-01-20T19:37:58.249Z,98574.63
2023-01-20T19:40:30.135Z,98581.19
2023-01-20T19:43:02.841Z,98582.41
2023-01-20T19:45:45.703Z,98584.09
2023-01-20T19:48:18.194Z,98588.06
2023-01-20T19:50:50.906Z,98587.03
2023-01-20T19:53:23.280Z,98583.19
2023-01-20T19:56:05.791Z,98589.03
2023-01-20T19:58:39.448Z,98589.94
2023-01-20T20:01:21.273Z,98575.44
2023-01-20T20:03:57.332Z,98589.06
2023-01-20T20:06:36.561Z,98585.47
2023-01-20T20:09:17.572Z,98592.53
2023-01-20T20:11:50.151Z,98591.66
2023-01-20T20:14:23.502Z,98588.38
2023-01-20T20:16:56.004Z,98592.53
2023-01-20T20:19:28.548Z,98586.69
2023-01-20T20:22:00.397Z,98591.66
2023-01-20T20:24:33.331Z,98589.50
2023-01-20T20:27:05.349Z,98587.69
2023-01-20T20:29:38.477Z,98586.34
2023-01-20T20:32:10.596Z,98591.22
2023-01-20T20:34:43.282Z,98588.78
2023-01-20T20:37:15.128Z,98581.75
2023-01-20T20:39:46.990Z,98589.84
2023-01-20T20:42:19.251Z,98585.22
2023-01-20T20:44:52.001Z,98589.81
2023-01-20T20:47:27.336Z,98590.94
2023-01-20T20:49:59.229Z,98589.28
2023-01-20T20:52:31.496Z,98594.00
2023-01-20T20:55:03.902Z,98583.19
2023-01-20T20:57:35.828Z,98583.66
2023-01-20T21:00:09.550Z,98583.88
2023-01-20T21:02:43.439Z,98581.50
2023-01-20T21:05:17.112Z,98587.81
2023-01-20T21:07:50.613Z,98585.31
2023-01-20T21:10:23.062Z,98588.13
2023-01-20T21:12:55.538Z,98590.28
2023-01-20T21:15:27.839Z,98582.41
2023-01-20T21:18:01.571Z,98582.53
2023-01-20T21:20:33.864Z,98595.13
2023-01-20T21:23:06.832Z,98587.00
2023-01-20T21:25:38.677Z,98593.00
2023-01-20T21:28:13.737Z,98595.00
2023-01-20T21:30:46.080Z,98591.53
2023-01-20T21:33:42.402Z,98588.38
2023-01-20T21:36:15.002Z,98581.72
2023-01-20T21:38:47.296Z,98584.88
2023-01-20T21:41:20.171Z,98588.59
2023-01-20T21:44:11.015Z,98586.34
2023-01-20T21:46:42.955Z,98583.09
2023-01-20T21:49:34.161Z,98582.53
2023-01-20T21:52:24.743Z,98588.59
2023-01-20T21:54:57.098Z,98597.59
2023-01-20T21:57:29.386Z,98591.53
2023-01-20T22:00:04.728Z,98588.69
2023-01-20T22:02:47.449Z,98586.81
2023-01-20T22:05:20.535Z,98592.88
2023-01-20T22:07:52.441Z,98600.53
2023-01-20T22:10:25.114Z,98595.13
2023-01-20T22:12:57.395Z,98593.66
2023-01-20T22:15:30.476Z,98588.59
2023-01-20T22:18:02.770Z,98604.69
2023-01-20T22:20:34.883Z,98609.41
2023-01-20T22:23:08.014Z,98614.22
2023-01-20T22:25:40.031Z,98600.41
2023-01-20T22:28:12.739Z,98610.19
2023-01-20T22:30:47.683Z,98601.72
2023-01-20T22:33:20.457Z,98619.63
2023-01-20T22:35:54.876Z,98614.09
2023-01-20T22:38:27.331Z,98618.50
2023-01-20T22:41:09.460Z,98620.97
2023-01-20T22:43:43.968Z,98622.44
2023-01-20T22:46:19.594Z,98614.00
2023-01-20T22:48:53.824Z,98608.59
2023-01-20T22:51:29.658Z,98608.00
2023-01-20T22:54:02.048Z,98615.19
2023-01-20T22:56:34.910Z,98608.09
2023-01-20T22:59:07.108Z,98614.47
2023-01-20T23:01:39.899Z,98611.97
2023-01-20T23:04:12.182Z,98607.47
2023-01-20T23:06:44.916Z,98612.81
2023-01-20T23:09:16.814Z,98605.44
2023-01-20T23:11:49.881Z,98612.28
2023-01-20T23:14:42.065Z,98620.47
2023-01-20T23:17:14.797Z,98615.34
2023-01-20T23:19:47.106Z,98621.31
2023-01-20T23:22:20.255Z,98615.06
2023-01-20T23:24:52.147Z,98609.44
2023-01-20T23:27:24.856Z,98614.72
2023-01-20T23:29:56.859Z,98615.19
2023-01-20T23:32:29.540Z,98614.25
2023-01-20T23:35:01.867Z,98614.94
2023-01-20T23:37:34.140Z,98608.53
2023-01-20T23:40:06.649Z,98609.66
2023-01-20T23:42:39.045Z,98614.69
2023-01-20T23:45:12.449Z,98617.88
2023-01-20T23:47:44.407Z,98610.59
2023-01-20T23:50:17.859Z,98604.97
2023-01-20T23:52:49.911Z,98607.44
2023-01-20T23:55:22.692Z,98610.59
2023-01-20T23:57:55.398Z,98614.56
